Time;durP1;ratioP1;P1;durP2;ratioP2;P2;SDS_P1;SDS_P2;PMS_P1;PMS_P2;Temp;Humidity;BMP_temperature;BMP_pressure;BME280_temperature;BME280_humidity;BME280_pressure;Samples;Min_cycle;Max_cycle;Signal;HPM_P1;HPM_P2
2023/04/15 00:01:18;;;;;;;5.4;2.8;;;;;;;;;;;;;
2023/04/15 00:03:42;;;;;;;11.7;6.9;;;;;;;;;;;;;
2023/04/15 00:06:07;;;;;;;7.2;5;;;;;;;;;;;;;
2023/04/15 00:08:33;;;;;;;3.4;2.6;;;;;;;;;;;;;
2023/04/15 00:11:01;;;;;;;4.7;2.2;;;;;;;;;;;;;
2023/04/15 00:13:23;;;;;;;3.7;2.4;;;;;;;;;;;;;
2023/04/15 00:15:49;;;;;;;5.7;2.4;;;;;;;;;;;;;
2023/04/15 00:18:14;;;;;;;3.8;2.6;;;;;;;;;;;;;
2023/04/15 00:20:39;;;;;;;4.8;2.9;;;;;;;;;;;;;
2023/04/15 00:23:04;;;;;;;4.7;3.2;;;;;;;;;;;;;
2023/04/15 00:25:30;;;;;;;3.9;2.4;;;;;;;;;;;;;
2023/04/15 00:27:55;;;;;;;3;2.1;;;;;;;;;;;;;
2023/04/15 00:30:20;;;;;;;2.3;1.7;;;;;;;;;;;;;
2023/04/15 00:32:45;;;;;;;3.2;1.8;;;;;;;;;;;;;
2023/04/15 00:35:11;;;;;;;2.4;1.7;;;;;;;;;;;;;
2023/04/15 00:37:36;;;;;;;4.8;2.6;;;;;;;;;;;;;
2023/04/15 00:40:01;;;;;;;4.5;2.4;;;;;;;;;;;;;
2023/04/15 00:42:26;;;;;;;6.2;2.7;;;;;;;;;;;;;
2023/04/15 00:44:51;;;;;;;4.8;2.4;;;;;;;;;;;;;
2023/04/15 00:47:16;;;;;;;5.9;2.6;;;;;;;;;;;;;
2023/04/15 00:49:41;;;;;;;4.9;2.6;;;;;;;;;;;;;
2023/04/15 00:52:07;;;;;;;4.4;2.7;;;;;;;;;;;;;
2023/04/15 00:54:31;;;;;;;2.5;1.7;;;;;;;;;;;;;
2023/04/15 00:56:57;;;;;;;2.6;1.6;;;;;;;;;;;;;
2023/04/15 00:59:22;;;;;;;3;1.7;;;;;;;;;;;;;
2023/04/15 01:01:47;;;;;;;2.8;1.8;;;;;;;;;;;;;
2023/04/15 01:04:13;;;;;;;4;2.6;;;;;;;;;;;;;
2023/04/15 01:06:38;;;;;;;2.4;2;;;;;;;;;;;;;
2023/04/15 01:09:03;;;;;;;4.7;1.8;;;;;;;;;;;;;
2023/04/15 01:11:28;;;;;;;3.1;1.5;;;;;;;;;;;;;
2023/04/15 01:13:53;;;;;;;3.4;2;;;;;;;;;;;;;
2023/04/15 01:16:18;;;;;;;4.1;2.1;;;;;;;;;;;;;
2023/04/15 01:18:45;;;;;;;3.4;1.9;;;;;;;;;;;;;
2023/04/15 01:21:10;;;;;;;5.4;2.1;;;;;;;;;;;;;
2023/04/15 01:23:37;;;;;;;3.5;2.1;;;;;;;;;;;;;
2023/04/15 01:26:01;;;;;;;4.7;4.3;;;;;;;;;;;;;
2023/04/15 01:28:27;;;;;;;3.9;1.8;;;;;;;;;;;;;
2023/04/15 01:30:52;;;;;;;2.1;1.5;;;;;;;;;;;;;
2023/04/15 01:33:18;;;;;;;4.7;1.8;;;;;;;;;;;;;
2023/04/15 01:35:43;;;;;;;3.7;1.8;;;;;;;;;;;;;
2023/04/15 01:38:09;;;;;;;3;1.9;;;;;;;;;;;;;
2023/04/15 01:40:34;;;;;;;3.3;1.9;;;;;;;;;;;;;
2023/04/15 01:43:00;;;;;;;2.7;1.7;;;;;;;;;;;;;
2023/04/15 01:45:25;;;;;;;2.5;1.7;;;;;;;;;;;;;
2023/04/15 01:47:52;;;;;;;3.1;1.6;;;;;;;;;;;;;
2023/04/15 01:50:17;;;;;;;1.8;1.4;;;;;;;;;;;;;
2023/04/15 01:52:44;;;;;;;4.7;2.1;;;;;;;;;;;;;
2023/04/15 01:55:08;;;;;;;2.7;1.5;;;;;;;;;;;;;
2023/04/15 01:57:35;;;;;;;2.6;1.5;;;;;;;;;;;;;
2023/04/15 02:00:00;;;;;;;2.9;1.5;;;;;;;;;;;;;
2023/04/15 02:02:26;;;;;;;2.7;1.6;;;;;;;;;;;;;
2023/04/15 02:04:51;;;;;;;2.1;1.5;;;;;;;;;;;;;
2023/04/15 02:07:16;;;;;;;3.6;1.8;;;;;;;;;;;;;
2023/04/15 02:09:42;;;;;;;1.7;1.6;;;;;;;;;;;;;
2023/04/15 02:12:07;;;;;;;2.7;1.7;;;;;;;;;;;;;
2023/04/15 02:14:32;;;;;;;2.2;1.4;;;;;;;;;;;;;
2023/04/15 02:17:05;;;;;;;2.5;1.7;;;;;;;;;;;;;
2023/04/15 02:19:24;;;;;;;3.8;1.8;;;;;;;;;;;;;
2023/04/15 02:21:48;;;;;;;2.5;1.6;;;;;;;;;;;;;
2023/04/15 02:24:13;;;;;;;5.3;1.7;;;;;;;;;;;;;
2023/04/15 02:26:39;;;;;;;1.9;1.5;;;;;;;;;;;;;
2023/04/15 02:29:04;;;;;;;2.9;1.5;;;;;;;;;;;;;
2023/04/15 02:31:32;;;;;;;4.3;1.8;;;;;;;;;;;;;
2023/04/15 02:33:55;;;;;;;2.6;1.6;;;;;;;;;;;;;
2023/04/15 02:36:22;;;;;;;2.3;1.2;;;;;;;;;;;;;
2023/04/15 02:38:47;;;;;;;1.5;1.4;;;;;;;;;;;;;
2023/04/15 02:41:13;;;;;;;2.4;1.4;;;;;;;;;;;;;
2023/04/15 02:43:38;;;;;;;2.7;1.4;;;;;;;;;;;;;
2023/04/15 02:46:03;;;;;;;3.5;1.3;;;;;;;;;;;;;
2023/04/15 02:48:28;;;;;;;2.4;1.6;;;;;;;;;;;;;
2023/04/15 02:50:53;;;;;;;2.4;1.7;;;;;;;;;;;;;
2023/04/15 02:53:19;;;;;;;3.4;1.6;;;;;;;;;;;;;
2023/04/15 02:55:45;;;;;;;1.5;1.4;;;;;;;;;;;;;
2023/04/15 02:58:10;;;;;;;4.9;1.7;;;;;;;;;;;;;
2023/04/15 03:00:37;;;;;;;2.9;1.6;;;;;;;;;;;;;
2023/04/15 03:03:02;;;;;;;1.9;1.5;;;;;;;;;;;;;
2023/04/15 03:05:28;;;;;;;3;1.9;;;;;;;;;;;;;
2023/04/15 03:07:53;;;;;;;2.6;1.5;;;;;;;;;;;;;
2023/04/15 03:10:20;;;;;;;1.9;1.5;;;;;;;;;;;;;
2023/04/15 03:12:45;;;;;;;4.4;2.1;;;;;;;;;;;;;
2023/04/15 03:15:11;;;;;;;3.6;2.2;;;;;;;;;;;;;
2023/04/15 03:17:36;;;;;;;5.1;2.3;;;;;;;;;;;;;
2023/04/15 03:20:13;;;;;;;3.7;2.4;;;;;;;;;;;;;
2023/04/15 03:22:38;;;;;;;3.4;2.4;;;;;;;;;;;;;
2023/04/15 03:25:03;;;;;;;4.4;2.7;;;;;;;;;;;;;
2023/04/15 03:27:28;;;;;;;4.5;2.7;;;;;;;;;;;;;
2023/04/15 03:29:55;;;;;;;3.4;2.1;;;;;;;;;;;;;
2023/04/15 03:32:21;;;;;;;8.5;3.8;;;;;;;;;;;;;
2023/04/15 03:34:46;;;;;;;6.1;2.9;;;;;;;;;;;;;
2023/04/15 03:37:11;;;;;;;6.5;2.7;;;;;;;;;;;;;
2023/04/15 03:39:36;;;;;;;4.6;2.1;;;;;;;;;;;;;
2023/04/15 03:42:03;;;;;;;4.2;2;;;;;;;;;;;;;
2023/04/15 03:44:28;;;;;;;4.7;2;;;;;;;;;;;;;
2023/04/15 03:46:55;;;;;;;3.1;1.6;;;;;;;;;;;;;
2023/04/15 03:49:21;;;;;;;4.2;1.7;;;;;;;;;;;;;
2023/04/15 03:51:45;;;;;;;2.9;1.6;;;;;;;;;;;;;
2023/04/15 03:54:11;;;;;;;1.6;1.5;;;;;;;;;;;;;
2023/04/15 03:56:37;;;;;;;2;1.6;;;;;;;;;;;;;
2023/04/15 03:59:02;;;;;;;3.1;2;;;;;;;;;;;;;
2023/04/15 04:02:33;;;;;;;3.2;1.5;;;;;;;3.9;95.4834;927.4029;;;;
2023/04/15 04:05:02;;;;;;;3.8;1.6;;;;;;;3.74;96.44531;927.429;;;;
2023/04/15 04:07:27;;;;;;;3.4;1.8;;;;;;;3.73;96.8584;927.4327;;;;
2023/04/15 04:09:54;;;;;;;2.2;1.5;;;;;;;3.66;97.06738;927.4158;;;;
2023/04/15 04:12:19;;;;;;;3.4;1.8;;;;;;;3.68;97.16309;927.4114;;;;
2023/04/15 04:14:44;;;;;;;3.9;2.2;;;;;;;3.69;96.85059;927.3463;;;;
2023/04/15 04:17:09;;;;;;;3;1.9;;;;;;;3.71;96.5625;927.389;;;;
2023/04/15 04:19:38;;;;;;;4.7;1.8;;;;;;;3.68;96.20801;927.4012;;;;
2023/04/15 04:22:04;;;;;;;2.9;2.1;;;;;;;3.62;96.25195;927.4615;;;;
2023/04/15 04:24:29;;;;;;;4.2;2;;;;;;;3.65;96.39258;927.4747;;;;
2023/04/15 04:26:55;;;;;;;2.8;1.9;;;;;;;3.65;96.29199;927.4998;;;;
2023/04/15 04:29:23;;;;;;;2;1.8;;;;;;;3.7;95.89746;927.4684;;;;
2023/04/15 04:31:48;;;;;;;3.4;1.7;;;;;;;3.67;95.94727;927.4326;;;;
2023/04/15 04:34:15;;;;;;;3.6;1.6;;;;;;;3.62;95.89258;927.5198;;;;
2023/04/15 04:36:40;;;;;;;2.2;1.5;;;;;;;3.64;96.28711;927.4879;;;;
2023/04/15 04:39:06;;;;;;;5.1;1.8;;;;;;;3.6;96.49512;927.5078;;;;
2023/04/15 04:41:32;;;;;;;3;1.8;;;;;;;3.59;96.44629;927.5433;;;;
2023/04/15 04:43:57;;;;;;;2.7;1.6;;;;;;;3.65;96.17969;927.5968;;;;
2023/04/15 04:46:23;;;;;;;2.6;2.2;;;;;;;3.64;96.32129;927.5997;;;;
2023/04/15 04:48:48;;;;;;;4.6;3.2;;;;;;;3.8;96.05469;927.6292;;;;
2023/04/15 04:51:16;;;;;;;5.2;2.9;;;;;;;3.81;96.04785;927.6038;;;;
2023/04/15 04:53:42;;;;;;;3.2;2.4;;;;;;;3.84;96.05176;927.6907;;;;
2023/04/15 04:56:08;;;;;;;9.1;2.6;;;;;;;3.87;95.57617;927.6929;;;;
2023/04/15 04:58:33;;;;;;;4.1;2.4;;;;;;;3.83;95.39941;927.6828;;;;
2023/04/15 05:01:05;;;;;;;4.4;2.4;;;;;;;3.76;95.32715;927.7127;;;;
2023/04/15 05:03:35;;;;;;;5;2.5;;;;;;;3.74;95.6582;927.7092;;;;
2023/04/15 05:06:01;;;;;;;3.1;2.3;;;;;;;3.73;96.01563;927.7381;;;;
2023/04/15 05:08:25;;;;;;;4;2;;;;;;;3.74;95.94141;927.6518;;;;
2023/04/15 05:10:51;;;;;;;3.2;2;;;;;;;3.83;95.35449;927.7056;;;;
2023/04/15 05:13:16;;;;;;;3.5;2.4;;;;;;;3.84;95.15234;927.6828;;;;
2023/04/15 05:15:47;;;;;;;3.9;1.8;;;;;;;3.85;95.37012;927.7153;;;;
2023/04/15 05:18:16;;;;;;;2.5;2;;;;;;;3.89;94.99609;927.7679;;;;
2023/04/15 05:20:41;;;;;;;5;2.2;;;;;;;3.87;95.00098;927.7999;;;;
2023/04/15 05:23:08;;;;;;;5.1;1.9;;;;;;;3.74;95.25391;927.7651;;;;
2023/04/15 05:25:33;;;;;;;4;1.7;;;;;;;3.77;95.63281;927.7964;;;;
2023/04/15 05:27:59;;;;;;;2.1;1.7;;;;;;;3.75;95.56152;927.7668;;;;
2023/04/15 05:30:24;;;;;;;2;1.7;;;;;;;3.81;95.68555;927.8203;;;;
2023/04/15 05:32:49;;;;;;;3;2.3;;;;;;;3.87;95.18262;927.807;;;;
2023/04/15 05:35:16;;;;;;;3.7;2;;;;;;;3.86;94.91113;927.8558;;;;
2023/04/15 05:37:41;;;;;;;1.7;1.6;;;;;;;4.01;95.00098;927.8594;;;;
2023/04/15 05:40:09;;;;;;;3;2.1;;;;;;;4.11;94.68652;927.7965;;;;
2023/04/15 05:42:32;;;;;;;3.9;2.8;;;;;;;4.28;94.29688;927.8791;;;;
2023/04/15 05:44:58;;;;;;;3.3;2.6;;;;;;;4.43;93.73242;927.8194;;;;
2023/04/15 05:47:23;;;;;;;3.7;2.9;;;;;;;4.45;92.67773;927.7668;;;;
2023/04/15 05:49:50;;;;;;;3.9;3.1;;;;;;;4.55;92.83496;927.8684;;;;
2023/04/15 05:52:15;;;;;;;5.2;3.1;;;;;;;4.59;92.36035;927.8311;;;;
2023/04/15 05:54:42;;;;;;;4;2.9;;;;;;;4.76;92.52148;927.8347;;;;
2023/04/15 05:57:07;;;;;;;3.7;2.5;;;;;;;4.85;92.38281;927.7401;;;;
2023/04/15 05:59:32;;;;;;;3.4;2.2;;;;;;;5.02;90.61523;927.8278;;;;
2023/04/15 06:01:57;;;;;;;2.4;1.8;;;;;;;5.22;89.76758;927.8519;;;;
2023/04/15 06:04:25;;;;;;;4.1;2.3;;;;;;;5.57;89.25293;927.8617;;;;
2023/04/15 06:06:50;;;;;;;3.4;1.7;;;;;;;5.41;89.875;927.8197;;;;
2023/04/15 06:09:15;;;;;;;2.7;2.5;;;;;;;5.62;89.99805;927.6889;;;;
2023/04/15 06:11:41;;;;;;;2.9;2;;;;;;;5.79;89.11914;927.7775;;;;
2023/04/15 06:14:10;;;;;;;3.6;2.1;;;;;;;6.02;88.5;927.8185;;;;
2023/04/15 06:16:35;;;;;;;4.5;2.3;;;;;;;5.87;87.72461;927.7936;;;;
2023/04/15 06:19:01;;;;;;;3.7;2.5;;;;;;;6.02;87.60938;927.7996;;;;
2023/04/15 06:21:26;;;;;;;2.5;2.1;;;;;;;6.31;87;927.8198;;;;
2023/04/15 06:23:52;;;;;;;2.3;1.8;;;;;;;6.47;86.04883;927.785;;;;
2023/04/15 06:26:17;;;;;;;3.6;1.9;;;;;;;6.62;84.88965;927.7547;;;;
2023/04/15 06:28:42;;;;;;;3.5;2;;;;;;;;;;;;;
2023/04/15 06:31:08;;;;;;;2.5;1.6;;;;;;;;;;;;;
2023/04/15 06:33:33;;;;;;;3.8;2.5;;;;;;;;;;;;;
2023/04/15 06:35:58;;;;;;;3;1.4;;;;;;;;;;;;;
2023/04/15 06:38:25;;;;;;;3.2;1.3;;;;;;;;;;;;;
2023/04/15 06:40:50;;;;;;;2.7;1.4;;;;;;;;;;;;;
2023/04/15 06:43:15;;;;;;;1.7;1.1;;;;;;;;;;;;;
2023/04/15 06:45:40;;;;;;;3.5;1.3;;;;;;;;;;;;;
2023/04/15 06:48:05;;;;;;;3.2;1.3;;;;;;;;;;;;;
2023/04/15 06:50:31;;;;;;;3.8;1.3;;;;;;;;;;;;;
2023/04/15 06:52:56;;;;;;;2.8;1.2;;;;;;;;;;;;;
2023/04/15 06:55:21;;;;;;;3.7;1.7;;;;;;;;;;;;;
2023/04/15 06:57:47;;;;;;;2.6;1.4;;;;;;;;;;;;;
2023/04/15 07:00:12;;;;;;;2.4;1.5;;;;;;;;;;;;;
2023/04/15 07:02:37;;;;;;;2.6;1.5;;;;;;;;;;;;;
2023/04/15 07:05:03;;;;;;;2.6;1.6;;;;;;;;;;;;;
2023/04/15 07:07:29;;;;;;;2.3;1.5;;;;;;;;;;;;;
2023/04/15 07:09:54;;;;;;;4.1;1.7;;;;;;;;;;;;;
2023/04/15 07:12:20;;;;;;;2.2;1.7;;;;;;;;;;;;;
2023/04/15 07:14:45;;;;;;;3.7;1.6;;;;;;;;;;;;;
2023/04/15 07:17:11;;;;;;;2;1.3;;;;;;;;;;;;;
2023/04/15 07:19:35;;;;;;;2.5;1.4;;;;;;;;;;;;;
2023/04/15 07:22:02;;;;;;;2.8;2;;;;;;;;;;;;;
2023/04/15 07:24:27;;;;;;;3.1;2.3;;;;;;;;;;;;;
2023/04/15 07:26:53;;;;;;;3.5;2.2;;;;;;;;;;;;;
2023/04/15 07:29:18;;;;;;;10.9;6.7;;;;;;;;;;;;;
2023/04/15 07:31:46;;;;;;;4.2;2;;;;;;;;;;;;;
2023/04/15 07:34:11;;;;;;;1.9;1.3;;;;;;;;;;;;;
2023/04/15 07:36:37;;;;;;;3.6;1.4;;;;;;;;;;;;;
2023/04/15 07:39:03;;;;;;;2.4;1.2;;;;;;;;;;;;;
2023/04/15 07:41:27;;;;;;;2.3;1.2;;;;;;;;;;;;;
2023/04/15 07:43:52;;;;;;;1.7;1.2;;;;;;;;;;;;;
2023/04/15 07:46:18;;;;;;;2.5;1.3;;;;;;;;;;;;;
2023/04/15 07:48:43;;;;;;;2.6;1.1;;;;;;;;;;;;;
2023/04/15 07:51:09;;;;;;;1.5;1.1;;;;;;;;;;;;;
2023/04/15 07:53:35;;;;;;;1.8;1.2;;;;;;;;;;;;;
2023/04/15 07:56:00;;;;;;;2.9;1.4;;;;;;;;;;;;;
2023/04/15 07:58:26;;;;;;;2.1;1.1;;;;;;;;;;;;;
2023/04/15 08:00:51;;;;;;;1.8;1.1;;;;;;;;;;;;;
2023/04/15 08:03:17;;;;;;;2.3;1.2;;;;;;;;;;;;;
2023/04/15 08:05:44;;;;;;;2.7;1.1;;;;;;;;;;;;;
2023/04/15 08:08:08;;;;;;;2.7;1.3;;;;;;;;;;;;;
2023/04/15 08:10:34;;;;;;;2.8;1.2;;;;;;;;;;;;;
2023/04/15 08:12:59;;;;;;;4;1.3;;;;;;;;;;;;;
2023/04/15 08:15:27;;;;;;;2.8;1.3;;;;;;;;;;;;;
2023/04/15 08:17:51;;;;;;;3.4;1.2;;;;;;;;;;;;;
2023/04/15 08:20:16;;;;;;;2.7;1.4;;;;;;;;;;;;;
2023/04/15 08:22:42;;;;;;;2;1.3;;;;;;;;;;;;;
2023/04/15 08:25:10;;;;;;;4.3;1.3;;;;;;;;;;;;;
2023/04/15 08:27:34;;;;;;;1.5;1.3;;;;;;;;;;;;;
2023/04/15 08:29:59;;;;;;;1.8;1.1;;;;;;;;;;;;;
2023/04/15 08:32:25;;;;;;;2.9;1.2;;;;;;;;;;;;;
2023/04/15 08:34:50;;;;;;;0.9;0.9;;;;;;;;;;;;;
2023/04/15 08:37:15;;;;;;;1.5;1.1;;;;;;;;;;;;;
2023/04/15 08:39:42;;;;;;;1.6;1;;;;;;;;;;;;;
2023/04/15 08:42:07;;;;;;;2.8;1.2;;;;;;;;;;;;;
2023/04/15 08:44:32;;;;;;;2.3;1.1;;;;;;;;;;;;;
2023/04/15 08:46:58;;;;;;;1.9;1;;;;;;;;;;;;;
2023/04/15 08:49:23;;;;;;;2;1.2;;;;;;;;;;;;;
2023/04/15 08:51:49;;;;;;;1.9;1.2;;;;;;;;;;;;;
2023/04/15 08:54:14;;;;;;;1.5;1;;;;;;;;;;;;;
2023/04/15 08:56:39;;;;;;;2.1;0.9;;;;;;;;;;;;;
2023/04/15 08:59:06;;;;;;;2.2;1;;;;;;;;;;;;;
2023/04/15 09:01:31;;;;;;;1.9;1.1;;;;;;;;;;;;;
2023/04/15 09:03:57;;;;;;;2.1;1.2;;;;;;;;;;;;;
2023/04/15 09:06:22;;;;;;;4.7;1.1;;;;;;;;;;;;;
2023/04/15 09:08:48;;;;;;;2.3;1.2;;;;;;;;;;;;;
2023/04/15 09:11:13;;;;;;;1.3;1;;;;;;;;;;;;;
2023/04/15 09:13:39;;;;;;;1.8;1.2;;;;;;;;;;;;;
2023/04/15 09:16:04;;;;;;;2.5;1.3;;;;;;;;;;;;;
2023/04/15 09:18:30;;;;;;;2.4;0.8;;;;;;;;;;;;;
2023/04/15 09:20:55;;;;;;;2.5;1.3;;;;;;;;;;;;;
2023/04/15 09:23:20;;;;;;;3.7;1.3;;;;;;;;;;;;;
2023/04/15 09:25:45;;;;;;;1.9;0.9;;;;;;;;;;;;;
2023/04/15 09:28:11;;;;;;;1.7;1.1;;;;;;;;;;;;;
2023/04/15 09:30:36;;;;;;;2.5;0.9;;;;;;;;;;;;;
2023/04/15 09:33:01;;;;;;;2.8;1.2;;;;;;;;;;;;;
2023/04/15 09:35:26;;;;;;;1.5;0.8;;;;;;;;;;;;;
2023/04/15 09:37:51;;;;;;;3;1;;;;;;;;;;;;;
2023/04/15 09:40:16;;;;;;;1;0.8;;;;;;;;;;;;;
2023/04/15 09:42:41;;;;;;;2.1;1;;;;;;;;;;;;;
2023/04/15 09:45:09;;;;;;;2;1.1;;;;;;;;;;;;;
2023/04/15 09:47:34;;;;;;;2.2;1.1;;;;;;;;;;;;;
2023/04/15 09:49:59;;;;;;;1.8;1;;;;;;;;;;;;;
2023/04/15 09:52:24;;;;;;;1.8;1;;;;;;;;;;;;;
2023/04/15 09:54:49;;;;;;;2.2;1;;;;;;;;;;;;;
2023/04/15 09:57:15;;;;;;;2.3;0.8;;;;;;;;;;;;;
2023/04/15 09:59:40;;;;;;;2.1;0.9;;;;;;;;;;;;;
2023/04/15 10:02:06;;;;;;;2.6;0.9;;;;;;;;;;;;;
2023/04/15 10:04:31;;;;;;;3.3;0.9;;;;;;;;;;;;;
2023/04/15 10:06:57;;;;;;;1.4;1;;;;;;;;;;;;;
2023/04/15 10:09:22;;;;;;;2.6;1.1;;;;;;;;;;;;;
2023/04/15 10:11:48;;;;;;;2.5;1.2;;;;;;;;;;;;;
2023/04/15 10:14:13;;;;;;;2.2;0.8;;;;;;;;;;;;;
2023/04/15 10:16:41;;;;;;;2.2;0.9;;;;;;;;;;;;;
2023/04/15 10:19:05;;;;;;;1.7;0.7;;;;;;;;;;;;;
2023/04/15 10:21:31;;;;;;;1.8;1;;;;;;;;;;;;;
2023/04/15 10:23:55;;;;;;;2.1;1.1;;;;;;;;;;;;;
2023/04/15 10:26:21;;;;;;;1.7;0.7;;;;;;;;;;;;;
2023/04/15 10:28:48;;;;;;;2.4;0.9;;;;;;;;;;;;;
2023/04/15 10:31:13;;;;;;;1.9;0.8;;;;;;;;;;;;;
2023/04/15 10:33:38;;;;;;;3.9;1.1;;;;;;;;;;;;;
2023/04/15 10:36:03;;;;;;;1.3;0.9;;;;;;;;;;;;;
2023/04/15 10:38:28;;;;;;;2;1.1;;;;;;;;;;;;;
2023/04/15 10:40:53;;;;;;;2.4;0.9;;;;;;;;;;;;;
2023/04/15 10:43:18;;;;;;;2.6;1;;;;;;;;;;;;;
2023/04/15 10:45:43;;;;;;;2;0.9;;;;;;;;;;;;;
2023/04/15 10:48:09;;;;;;;1.6;0.7;;;;;;;;;;;;;
2023/04/15 10:50:34;;;;;;;2.6;0.8;;;;;;;;;;;;;
2023/04/15 10:52:59;;;;;;;2.4;1;;;;;;;;;;;;;
2023/04/15 10:55:24;;;;;;;1.1;0.8;;;;;;;;;;;;;
2023/04/15 10:57:49;;;;;;;2.6;1;;;;;;;;;;;;;
2023/04/15 11:00:15;;;;;;;1.8;0.9;;;;;;;;;;;;;
2023/04/15 11:02:42;;;;;;;4.4;1.2;;;;;;;;;;;;;
2023/04/15 11:05:08;;;;;;;1.6;0.8;;;;;;;;;;;;;
2023/04/15 11:07:32;;;;;;;1.4;0.7;;;;;;;;;;;;;
2023/04/15 11:09:58;;;;;;;1.7;0.8;;;;;;;;;;;;;
2023/04/15 11:12:23;;;;;;;3.2;0.9;;;;;;;;;;;;;
2023/04/15 11:14:48;;;;;;;1;0.7;;;;;;;;;;;;;
2023/04/15 11:17:13;;;;;;;2.3;1;;;;;;;;;;;;;
2023/04/15 11:19:38;;;;;;;2;0.8;;;;;;;;;;;;;
2023/04/15 11:22:03;;;;;;;2.8;0.9;;;;;;;;;;;;;
2023/04/15 11:24:28;;;;;;;2;0.7;;;;;;;;;;;;;
2023/04/15 11:26:53;;;;;;;1.6;1;;;;;;;;;;;;;
2023/04/15 11:29:18;;;;;;;1.5;0.8;;;;;;;;;;;;;
2023/04/15 11:31:44;;;;;;;1.7;0.8;;;;;;;;;;;;;
2023/04/15 11:34:09;;;;;;;1.8;0.8;;;;;;;;;;;;;
2023/04/15 11:36:34;;;;;;;2.6;1;;;;;;;;;;;;;
2023/04/15 11:38:59;;;;;;;2.4;0.9;;;;;;;;;;;;;
2023/04/15 11:41:24;;;;;;;1.9;1.2;;;;;;;;;;;;;
2023/04/15 11:43:50;;;;;;;2.8;1;;;;;;;;;;;;;
2023/04/15 11:46:15;;;;;;;2;1.1;;;;;;;;;;;;;
2023/04/15 11:48:40;;;;;;;3.9;1.3;;;;;;;;;;;;;
2023/04/15 11:51:05;;;;;;;4.7;1.6;;;;;;;;;;;;;
2023/04/15 11:53:30;;;;;;;2.5;0.9;;;;;;;;;;;;;
2023/04/15 11:55:55;;;;;;;3.5;1.2;;;;;;;;;;;;;
2023/04/15 11:58:21;;;;;;;1.7;0.8;;;;;;;;;;;;;
2023/04/15 12:00:47;;;;;;;1.8;1.1;;;;;;;;;;;;;
2023/04/15 12:03:12;;;;;;;2.1;0.9;;;;;;;;;;;;;
2023/04/15 12:05:38;;;;;;;2.1;1;;;;;;;;;;;;;
2023/04/15 12:08:03;;;;;;;2.2;1;;;;;;;;;;;;;
2023/04/15 12:10:29;;;;;;;3.7;1.3;;;;;;;;;;;;;
2023/04/15 12:12:54;;;;;;;3.7;1.3;;;;;;;;;;;;;
2023/04/15 12:15:21;;;;;;;2.4;1.2;;;;;;;;;;;;;
2023/04/15 12:17:46;;;;;;;2.4;1.1;;;;;;;;;;;;;
2023/04/15 12:20:11;;;;;;;2.9;1.1;;;;;;;;;;;;;
2023/04/15 12:22:36;;;;;;;2.5;1.2;;;;;;;;;;;;;
2023/04/15 12:25:02;;;;;;;2.2;1.3;;;;;;;;;;;;;
2023/04/15 12:27:27;;;;;;;3.7;1.9;;;;;;;;;;;;;
2023/04/15 12:29:53;;;;;;;2;1.4;;;;;;;;;;;;;
2023/04/15 12:32:20;;;;;;;4.4;1.5;;;;;;;;;;;;;
2023/04/15 12:34:44;;;;;;;3.3;1.3;;;;;;;;;;;;;
2023/04/15 12:37:10;;;;;;;2.7;1.1;;;;;;;;;;;;;
2023/04/15 12:39:34;;;;;;;1.9;1.2;;;;;;;;;;;;;
2023/04/15 12:42:00;;;;;;;2.4;1.4;;;;;;;;;;;;;
2023/04/15 12:44:24;;;;;;;2.3;1.3;;;;;;;;;;;;;
2023/04/15 12:46:51;;;;;;;4;1.2;;;;;;;;;;;;;
2023/04/15 12:49:18;;;;;;;2.1;1.3;;;;;;;;;;;;;
2023/04/15 12:51:41;;;;;;;2.9;1.6;;;;;;;;;;;;;
2023/04/15 12:54:06;;;;;;;3.1;1.5;;;;;;;;;;;;;
2023/04/15 12:56:31;;;;;;;3.3;1.1;;;;;;;;;;;;;
2023/04/15 12:58:57;;;;;;;3.5;1.7;;;;;;;;;;;;;
2023/04/15 13:01:22;;;;;;;4.8;1.5;;;;;;;;;;;;;
2023/04/15 13:03:49;;;;;;;2.8;1.5;;;;;;;;;;;;;
2023/04/15 13:06:13;;;;;;;2.3;1.3;;;;;;;;;;;;;
2023/04/15 13:08:40;;;;;;;2.9;1.8;;;;;;;;;;;;;
2023/04/15 13:11:04;;;;;;;2.8;1.6;;;;;;;;;;;;;
2023/04/15 13:13:30;;;;;;;3.9;1.9;;;;;;;;;;;;;
2023/04/15 13:15:55;;;;;;;2.5;2;;;;;;;;;;;;;
2023/04/15 13:18:22;;;;;;;3.2;2.2;;;;;;;;;;;;;
2023/04/15 13:20:46;;;;;;;4.3;2.3;;;;;;;;;;;;;
2023/04/15 13:23:12;;;;;;;4.1;2.2;;;;;;;;;;;;;
2023/04/15 13:25:37;;;;;;;2.7;1.9;;;;;;;;;;;;;
2023/04/15 13:28:04;;;;;;;5.5;2.5;;;;;;;;;;;;;
2023/04/15 13:30:30;;;;;;;4;1.9;;;;;;;;;;;;;
2023/04/15 13:32:55;;;;;;;2.9;1.8;;;;;;;;;;;;;
2023/04/15 13:35:21;;;;;;;3.2;2.3;;;;;;;;;;;;;
2023/04/15 13:37:47;;;;;;;2.9;1.9;;;;;;;;;;;;;
2023/04/15 13:40:12;;;;;;;3.9;2.1;;;;;;;;;;;;;
2023/04/15 13:42:39;;;;;;;3.1;2;;;;;;;;;;;;;
2023/04/15 13:45:04;;;;;;;3.6;2.3;;;;;;;;;;;;;
2023/04/15 13:47:29;;;;;;;4.8;2.6;;;;;;;;;;;;;
2023/04/15 13:49:55;;;;;;;5.5;2.7;;;;;;;;;;;;;
2023/04/15 13:52:20;;;;;;;3;2.2;;;;;;;;;;;;;
2023/04/15 13:54:46;;;;;;;4.2;2.3;;;;;;;;;;;;;
2023/04/15 13:57:10;;;;;;;4.3;2.8;;;;;;;;;;;;;
2023/04/15 13:59:36;;;;;;;4.3;2.5;;;;;;;;;;;;;
2023/04/15 14:02:01;;;;;;;4.3;2.7;;;;;;;;;;;;;
2023/04/15 14:04:26;;;;;;;5.5;2.8;;;;;;;;;;;;;
2023/04/15 14:06:53;;;;;;;4.4;2.9;;;;;;;;;;;;;
2023/04/15 14:09:18;;;;;;;5.4;2.9;;;;;;;;;;;;;
2023/04/15 14:11:44;;;;;;;4.1;2.8;;;;;;;;;;;;;
2023/04/15 14:14:10;;;;;;;7.6;3.3;;;;;;;;;;;;;
2023/04/15 14:16:36;;;;;;;4.4;3.1;;;;;;;;;;;;;
2023/04/15 14:19:01;;;;;;;6.6;3.5;;;;;;;;;;;;;
2023/04/15 14:21:30;;;;;;;4.4;3.5;;;;;;;;;;;;;
2023/04/15 14:23:53;;;;;;;5;3.4;;;;;;;;;;;;;
2023/04/15 14:26:19;;;;;;;5.1;3.7;;;;;;;;;;;;;
2023/04/15 14:28:44;;;;;;;4.6;3.5;;;;;;;;;;;;;
2023/04/15 14:31:11;;;;;;;5.7;3.8;;;;;;;;;;;;;
2023/04/15 14:33:36;;;;;;;5.4;3.8;;;;;;;;;;;;;
2023/04/15 14:36:01;;;;;;;4.5;3.5;;;;;;;;;;;;;
2023/04/15 14:38:26;;;;;;;4.3;3.6;;;;;;;;;;;;;
2023/04/15 14:40:52;;;;;;;4.6;3.8;;;;;;;;;;;;;
2023/04/15 14:43:17;;;;;;;5.7;3.5;;;;;;;;;;;;;
2023/04/15 14:45:43;;;;;;;4.4;3.6;;;;;;;;;;;;;
2023/04/15 14:48:08;;;;;;;5;3.6;;;;;;;;;;;;;
2023/04/15 14:50:34;;;;;;;4.7;3.4;;;;;;;;;;;;;
2023/04/15 14:52:59;;;;;;;3.9;3.3;;;;;;;;;;;;;
2023/04/15 14:55:25;;;;;;;6.7;3.5;;;;;;;;;;;;;
2023/04/15 14:57:50;;;;;;;5.9;4.2;;;;;;;;;;;;;
2023/04/15 15:00:17;;;;;;;6.3;3.8;;;;;;;;;;;;;
2023/04/15 15:02:42;;;;;;;5.6;3.5;;;;;;;;;;;;;
2023/04/15 15:05:11;;;;;;;6.1;3.7;;;;;;;;;;;;;
2023/04/15 15:07:36;;;;;;;4.8;3.5;;;;;;;;;;;;;
2023/04/15 15:10:01;;;;;;;4.3;3.4;;;;;;;;;;;;;
2023/04/15 15:12:26;;;;;;;4.3;3.7;;;;;;;;;;;;;
2023/04/15 15:14:52;;;;;;;6;3.5;;;;;;;;;;;;;
2023/04/15 15:17:17;;;;;;;4.6;3.4;;;;;;;;;;;;;
2023/04/15 15:19:44;;;;;;;5.3;3.5;;;;;;;;;;;;;
2023/04/15 15:22:09;;;;;;;4.9;3.6;;;;;;;;;;;;;
2023/04/15 15:24:36;;;;;;;7.7;4.1;;;;;;;;;;;;;
2023/04/15 15:27:02;;;;;;;8.6;3.7;;;;;;;;;;;;;
2023/04/15 15:29:27;;;;;;;6.2;3.5;;;;;;;;;;;;;
2023/04/15 15:31:52;;;;;;;7.4;3.8;;;;;;;;;;;;;
2023/04/15 15:34:19;;;;;;;5.8;3.7;;;;;;;;;;;;;
2023/04/15 15:36:44;;;;;;;5.7;4.1;;;;;;;;;;;;;
2023/04/15 15:39:09;;;;;;;7.5;4.9;;;;;;;;;;;;;
2023/04/15 15:41:35;;;;;;;7.2;4.8;;;;;;;;;;;;;
2023/04/15 15:43:59;;;;;;;6.8;4.2;;;;;;;;;;;;;
2023/04/15 15:46:24;;;;;;;5.9;3.8;;;;;;;;;;;;;
2023/04/15 15:48:50;;;;;;;6.7;3.6;;;;;;;;;;;;;
2023/04/15 15:51:16;;;;;;;5.4;3;;;;;;;;;;;;;
2023/04/15 15:53:43;;;;;;;4.9;3.5;;;;;;;;;;;;;
2023/04/15 15:56:07;;;;;;;9.1;4.9;;;;;;;;;;;;;
2023/04/15 15:58:33;;;;;;;9.8;5.7;;;;;;;;;;;;;
2023/04/15 16:00:58;;;;;;;9.6;4.8;;;;;;;;;;;;;
2023/04/15 16:03:24;;;;;;;8;4.1;;;;;;;;;;;;;
2023/04/15 16:05:49;;;;;;;5.8;3.3;;;;;;;;;;;;;
2023/04/15 16:08:16;;;;;;;6;3.7;;;;;;;;;;;;;
2023/04/15 16:10:41;;;;;;;6.8;3.6;;;;;;;;;;;;;
2023/04/15 16:13:07;;;;;;;3.7;2.8;;;;;;;;;;;;;
2023/04/15 16:15:33;;;;;;;5.2;3.1;;;;;;;;;;;;;
2023/04/15 16:17:57;;;;;;;8.4;4.9;;;;;;;;;;;;;
2023/04/15 16:20:23;;;;;;;13.5;7.8;;;;;;;;;;;;;
2023/04/15 16:22:48;;;;;;;6.1;4.8;;;;;;;;;;;;;
2023/04/15 16:25:14;;;;;;;5.6;3.3;;;;;;;;;;;;;
2023/04/15 16:27:41;;;;;;;3.8;2.9;;;;;;;;;;;;;
2023/04/15 16:30:06;;;;;;;4.9;2.9;;;;;;;;;;;;;
2023/04/15 16:32:32;;;;;;;8.7;7;;;;;;;;;;;;;
2023/04/15 16:34:57;;;;;;;12;8.3;;;;;;;;;;;;;
2023/04/15 16:37:23;;;;;;;8.7;6.6;;;;;;;;;;;;;
2023/04/15 16:39:48;;;;;;;7.1;5.1;;;;;;;;;;;;;
2023/04/15 16:42:13;;;;;;;8.4;5.5;;;;;;;;;;;;;
2023/04/15 16:44:38;;;;;;;7.6;5.5;;;;;;;;;;;;;
2023/04/15 16:47:04;;;;;;;7.2;4.8;;;;;;;;;;;;;
2023/04/15 16:49:29;;;;;;;7.4;4.6;;;;;;;;;;;;;
2023/04/15 16:51:55;;;;;;;10.2;5.9;;;;;;;;;;;;;
2023/04/15 16:54:20;;;;;;;6.2;4.8;;;;;;;;;;;;;
2023/04/15 16:56:46;;;;;;;8.6;5.7;;;;;;;;;;;;;
2023/04/15 16:59:11;;;;;;;8.4;4.9;;;;;;;;;;;;;
2023/04/15 17:01:38;;;;;;;7.8;5.7;;;;;;;;;;;;;
2023/04/15 17:04:04;;;;;;;7.5;5.3;;;;;;;;;;;;;
2023/04/15 17:06:30;;;;;;;9;5.4;;;;;;;;;;;;;
2023/04/15 17:08:55;;;;;;;8.7;4.7;;;;;;;;;;;;;
2023/04/15 17:11:20;;;;;;;10;7.3;;;;;;;;;;;;;
2023/04/15 17:13:45;;;;;;;8.6;6.1;;;;;;;;;;;;;
2023/04/15 17:16:12;;;;;;;9.2;6.6;;;;;;;;;;;;;
2023/04/15 17:18:37;;;;;;;10.4;5.7;;;;;;;;;;;;;
2023/04/15 17:21:02;;;;;;;9.6;5.9;;;;;;;;;;;;;
2023/04/15 17:23:27;;;;;;;7.2;3.7;;;;;;;;;;;;;
2023/04/15 17:25:53;;;;;;;5.3;3.5;;;;;;;;;;;;;
2023/04/15 17:28:18;;;;;;;6.5;4.2;;;;;;;;;;;;;
2023/04/15 17:30:45;;;;;;;5.9;4.5;;;;;;;;;;;;;
2023/04/15 17:33:10;;;;;;;6.7;4.3;;;;;;;;;;;;;
2023/04/15 17:35:35;;;;;;;6.6;4.2;;;;;;;;;;;;;
2023/04/15 17:38:01;;;;;;;6.2;4.4;;;;;;;;;;;;;
2023/04/15 17:40:25;;;;;;;5.1;3.8;;;;;;;;;;;;;
2023/04/15 17:42:51;;;;;;;5.4;3.4;;;;;;;;;;;;;
2023/04/15 17:45:18;;;;;;;3.9;2.9;;;;;;;;;;;;;
2023/04/15 17:47:43;;;;;;;4.7;2.9;;;;;;;;;;;;;
2023/04/15 17:50:11;;;;;;;2.8;2.4;;;;;;;;;;;;;
2023/04/15 17:52:36;;;;;;;3;2.7;;;;;;;;;;;;;
2023/04/15 17:55:01;;;;;;;3.5;2.7;;;;;;;;;;;;;
2023/04/15 17:57:26;;;;;;;3.9;2.9;;;;;;;;;;;;;
2023/04/15 17:59:52;;;;;;;3.7;2.6;;;;;;;;;;;;;
2023/04/15 18:02:17;;;;;;;2.9;2.6;;;;;;;;;;;;;
2023/04/15 18:04:44;;;;;;;3.2;2.6;;;;;;;;;;;;;
2023/04/15 18:07:09;;;;;;;3.3;2.5;;;;;;;;;;;;;
2023/04/15 18:09:36;;;;;;;3.6;3;;;;;;;;;;;;;
2023/04/15 18:12:01;;;;;;;4.1;3.1;;;;;;;;;;;;;
2023/04/15 18:14:27;;;;;;;3.1;2.5;;;;;;;;;;;;;
2023/04/15 18:16:52;;;;;;;1.9;1.6;;;;;;;;;;;;;
2023/04/15 18:19:22;;;;;;;2.6;1.9;;;;;;;;;;;;;
2023/04/15 18:21:45;;;;;;;2.1;1.9;;;;;;;;;;;;;
2023/04/15 18:24:11;;;;;;;2.5;2.3;;;;;;;;;;;;;
2023/04/15 18:26:36;;;;;;;3.7;2.6;;;;;;;;;;;;;
2023/04/15 18:29:02;;;;;;;4.4;3.8;;;;;;;;;;;;;
2023/04/15 18:31:27;;;;;;;3.2;2.5;;;;;;;;;;;;;
2023/04/15 18:33:52;;;;;;;2.7;1.9;;;;;;;;;;;;;
2023/04/15 18:36:17;;;;;;;2.2;2;;;;;;;;;;;;;
2023/04/15 18:38:43;;;;;;;3.2;2.6;;;;;;;;;;;;;
2023/04/15 18:41:08;;;;;;;3.7;2.8;;;;;;;;;;;;;
2023/04/15 18:43:34;;;;;;;4.9;4.1;;;;;;;;;;;;;
2023/04/15 18:46:00;;;;;;;5.5;4.3;;;;;;;;;;;;;
2023/04/15 18:48:27;;;;;;;4.2;3.2;;;;;;;;;;;;;
2023/04/15 18:50:53;;;;;;;2.9;2.6;;;;;;;;;;;;;
2023/04/15 18:53:18;;;;;;;2.9;2.6;;;;;;;;;;;;;
2023/04/15 18:55:43;;;;;;;3.5;3;;;;;;;;;;;;;
2023/04/15 18:58:08;;;;;;;3;2.7;;;;;;;;;;;;;
2023/04/15 19:00:35;;;;;;;3.9;3.3;;;;;;;;;;;;;
2023/04/15 19:03:00;;;;;;;5.4;4.8;;;;;;;;;;;;;
2023/04/15 19:05:25;;;;;;;6.2;5.2;;;;;;;;;;;;;
2023/04/15 19:07:50;;;;;;;6.7;5.8;;;;;;;;;;;;;
2023/04/15 19:10:15;;;;;;;6.5;4.9;;;;;;;;;;;;;
2023/04/15 19:12:42;;;;;;;5.8;4.2;;;;;;;;;;;;;
2023/04/15 19:15:07;;;;;;;5.7;4.6;;;;;;;;;;;;;
2023/04/15 19:17:33;;;;;;;4.7;3.8;;;;;;;;;;;;;
2023/04/15 19:19:58;;;;;;;5.9;4.2;;;;;;;;;;;;;
2023/04/15 19:22:24;;;;;;;5.2;4.5;;;;;;;;;;;;;
2023/04/15 19:24:49;;;;;;;6.4;4.8;;;;;;;;;;;;;
2023/04/15 19:27:16;;;;;;;4.8;3.8;;;;;;;;;;;;;
2023/04/15 19:29:41;;;;;;;4.1;3.7;;;;;;;;;;;;;
2023/04/15 19:32:07;;;;;;;5;4;;;;;;;;;;;;;
2023/04/15 19:34:32;;;;;;;2.9;2.7;;;;;;;;;;;;;